Masjed Soleyman, Iran
Current Conditions -  °F | °C
As of 7:30 AM on Friday 21 Nov 2014 (Local Time) from OIAW Reporting Station
Clear Clear  
Wind Chill: 57°   Ceiling: Unl
Heat Index: 57°   Visibility: 5mi
Dew Point: 48°   Wind: 2mph
Humidity: 72%   Direction: 100°E
Pressure: 30.09"   Gusts: NA
Location:  31.94°N, 49.31°E
Report Text: OIAW 210430Z 10002KT 8000 NSC 14/09 Q1019
Loading
Personal Weather Stations






























Interactive Weather Map New forecast layout! Learn more

10-Day Weather Forecast

Advertisements
Track Severe Weather on mobile